sensor_id;sensor_type;location;lat;lon;timestamp;P1;durP1;ratioP1;P2;durP2;ratioP2
50126;SDS011;36024;47.974;16.398;2022-08-20T00:01:07;3.63;;;3.33;;
50126;SDS011;36024;47.974;16.398;2022-08-20T00:03:36;3.83;;;3.53;;
50126;SDS011;36024;47.974;16.398;2022-08-20T00:06:10;3.40;;;3.20;;
50126;SDS011;36024;47.974;16.398;2022-08-20T00:08:42;3.70;;;3.40;;
50126;SDS011;36024;47.974;16.398;2022-08-20T00:11:10;3.63;;;3.33;;
50126;SDS011;36024;47.974;16.398;2022-08-20T00:13:41;3.50;;;3.23;;
50126;SDS011;36024;47.974;16.398;2022-08-20T00:16:11;3.70;;;3.40;;
50126;SDS011;36024;47.974;16.398;2022-08-20T00:18:39;3.17;;;2.97;;
50126;SDS011;36024;47.974;16.398;2022-08-20T00:21:07;3.90;;;3.60;;
50126;SDS011;36024;47.974;16.398;2022-08-20T00:23:45;2.90;;;2.70;;
50126;SDS011;36024;47.974;16.398;2022-08-20T00:26:13;3.47;;;3.17;;
50126;SDS011;36024;47.974;16.398;2022-08-20T00:28:40;3.63;;;3.33;;
50126;SDS011;36024;47.974;16.398;2022-08-20T00:31:08;3.10;;;2.90;;
50126;SDS011;36024;47.974;16.398;2022-08-20T00:33:36;3.93;;;3.20;;
50126;SDS011;36024;47.974;16.398;2022-08-20T00:36:03;3.07;;;2.87;;
50126;SDS011;36024;47.974;16.398;2022-08-20T00:38:38;3.20;;;3.00;;
50126;SDS011;36024;47.974;16.398;2022-08-20T00:41:08;3.53;;;3.20;;
50126;SDS011;36024;47.974;16.398;2022-08-20T00:43:40;3.27;;;3.07;;
50126;SDS011;36024;47.974;16.398;2022-08-20T00:46:20;3.60;;;3.30;;
50126;SDS011;36024;47.974;16.398;2022-08-20T00:48:57;3.13;;;2.93;;
50126;SDS011;36024;47.974;16.398;2022-08-20T00:52:25;3.60;;;3.30;;
50126;SDS011;36024;47.974;16.398;2022-08-20T00:54:40;3.10;;;2.80;;
50126;SDS011;36024;47.974;16.398;2022-08-20T00:57:55;3.67;;;3.37;;
50126;SDS011;36024;47.974;16.398;2022-08-20T01:00:22;3.70;;;3.40;;
50126;SDS011;36024;47.974;16.398;2022-08-20T01:02:51;3.70;;;3.40;;
50126;SDS011;36024;47.974;16.398;2022-08-20T01:05:18;4.33;;;3.93;;
50126;SDS011;36024;47.974;16.398;2022-08-20T01:07:44;4.37;;;3.97;;
50126;SDS011;36024;47.974;16.398;2022-08-20T01:10:13;4.47;;;4.07;;
50126;SDS011;36024;47.974;16.398;2022-08-20T01:12:45;4.60;;;4.30;;
50126;SDS011;36024;47.974;16.398;2022-08-20T01:15:15;5.60;;;4.03;;
50126;SDS011;36024;47.974;16.398;2022-08-20T01:17:45;4.80;;;4.40;;
50126;SDS011;36024;47.974;16.398;2022-08-20T01:20:16;5.13;;;4.73;;
50126;SDS011;36024;47.974;16.398;2022-08-20T01:22:52;5.23;;;4.53;;
50126;SDS011;36024;47.974;16.398;2022-08-20T01:25:49;5.47;;;4.47;;
50126;SDS011;36024;47.974;16.398;2022-08-20T01:28:21;6.03;;;4.60;;
50126;SDS011;36024;47.974;16.398;2022-08-20T01:30:50;4.90;;;4.50;;
50126;SDS011;36024;47.974;16.398;2022-08-20T01:33:18;4.37;;;4.00;;
50126;SDS011;36024;47.974;16.398;2022-08-20T01:35:45;4.40;;;4.00;;
50126;SDS011;36024;47.974;16.398;2022-08-20T01:38:12;3.70;;;3.40;;
50126;SDS011;36024;47.974;16.398;2022-08-20T01:43:50;3.83;;;3.50;;
50126;SDS011;36024;47.974;16.398;2022-08-20T01:46:27;3.73;;;3.43;;
50126;SDS011;36024;47.974;16.398;2022-08-20T01:48:55;3.97;;;3.67;;
50126;SDS011;36024;47.974;16.398;2022-08-20T01:51:24;3.40;;;3.10;;
50126;SDS011;36024;47.974;16.398;2022-08-20T01:53:54;3.43;;;3.13;;
50126;SDS011;36024;47.974;16.398;2022-08-20T01:56:23;3.00;;;2.80;;
50126;SDS011;36024;47.974;16.398;2022-08-20T01:58:52;2.57;;;2.47;;
50126;SDS011;36024;47.974;16.398;2022-08-20T02:01:31;2.73;;;2.53;;
50126;SDS011;36024;47.974;16.398;2022-08-20T02:04:12;2.90;;;2.70;;
50126;SDS011;36024;47.974;16.398;2022-08-20T02:06:41;2.50;;;2.30;;
50126;SDS011;36024;47.974;16.398;2022-08-20T02:09:24;2.70;;;2.50;;
50126;SDS011;36024;47.974;16.398;2022-08-20T02:11:52;2.30;;;2.10;;
50126;SDS011;36024;47.974;16.398;2022-08-20T02:14:19;2.50;;;2.30;;
50126;SDS011;36024;47.974;16.398;2022-08-20T02:16:46;2.57;;;2.37;;
50126;SDS011;36024;47.974;16.398;2022-08-20T02:19:28;2.23;;;2.03;;
50126;SDS011;36024;47.974;16.398;2022-08-20T02:21:58;2.57;;;2.37;;
50126;SDS011;36024;47.974;16.398;2022-08-20T02:24:29;2.63;;;2.10;;
50126;SDS011;36024;47.974;16.398;2022-08-20T02:26:56;2.93;;;2.00;;
50126;SDS011;36024;47.974;16.398;2022-08-20T02:29:22;1.93;;;1.83;;
50126;SDS011;36024;47.974;16.398;2022-08-20T02:31:49;2.07;;;1.97;;
50126;SDS011;36024;47.974;16.398;2022-08-20T02:34:36;2.20;;;2.10;;
50126;SDS011;36024;47.974;16.398;2022-08-20T02:37:03;2.00;;;1.80;;
50126;SDS011;36024;47.974;16.398;2022-08-20T02:39:31;1.83;;;1.70;;
50126;SDS011;36024;47.974;16.398;2022-08-20T02:41:59;1.90;;;1.80;;
50126;SDS011;36024;47.974;16.398;2022-08-20T02:44:28;1.70;;;1.60;;
50126;SDS011;36024;47.974;16.398;2022-08-20T02:46:55;2.00;;;1.90;;
50126;SDS011;36024;47.974;16.398;2022-08-20T02:49:22;1.70;;;1.60;;
50126;SDS011;36024;47.974;16.398;2022-08-20T02:51:49;1.97;;;1.53;;
50126;SDS011;36024;47.974;16.398;2022-08-20T02:54:15;1.20;;;1.20;;
50126;SDS011;36024;47.974;16.398;2022-08-20T02:56:43;1.57;;;1.47;;
50126;SDS011;36024;47.974;16.398;2022-08-20T02:59:09;1.30;;;1.20;;
50126;SDS011;36024;47.974;16.398;2022-08-20T03:01:44;1.00;;;1.00;;
50126;SDS011;36024;47.974;16.398;2022-08-20T03:04:10;1.00;;;1.00;;
50126;SDS011;36024;47.974;16.398;2022-08-20T03:06:37;1.07;;;1.07;;
50126;SDS011;36024;47.974;16.398;2022-08-20T03:09:04;1.00;;;1.00;;
50126;SDS011;36024;47.974;16.398;2022-08-20T03:11:31;1.20;;;1.10;;
50126;SDS011;36024;47.974;16.398;2022-08-20T03:13:59;1.13;;;1.00;;
50126;SDS011;36024;47.974;16.398;2022-08-20T03:16:26;1.47;;;0.93;;
50126;SDS011;36024;47.974;16.398;2022-08-20T03:18:53;1.13;;;1.10;;
50126;SDS011;36024;47.974;16.398;2022-08-20T03:21:20;1.10;;;1.00;;
50126;SDS011;36024;47.974;16.398;2022-08-20T03:23:47;0.90;;;0.90;;
50126;SDS011;36024;47.974;16.398;2022-08-20T03:26:14;0.80;;;0.80;;
50126;SDS011;36024;47.974;16.398;2022-08-20T03:28:41;1.57;;;1.00;;
50126;SDS011;36024;47.974;16.398;2022-08-20T03:31:08;1.10;;;1.00;;
50126;SDS011;36024;47.974;16.398;2022-08-20T03:33:40;0.90;;;0.90;;
50126;SDS011;36024;47.974;16.398;2022-08-20T03:36:19;1.00;;;0.90;;
50126;SDS011;36024;47.974;16.398;2022-08-20T03:38:58;1.10;;;1.10;;
50126;SDS011;36024;47.974;16.398;2022-08-20T03:41:26;0.97;;;0.97;;
50126;SDS011;36024;47.974;16.398;2022-08-20T03:43:54;0.90;;;0.90;;
50126;SDS011;36024;47.974;16.398;2022-08-20T03:46:21;0.90;;;0.90;;
50126;SDS011;36024;47.974;16.398;2022-08-20T03:48:49;1.00;;;1.00;;
50126;SDS011;36024;47.974;16.398;2022-08-20T03:51:26;0.87;;;0.87;;
50126;SDS011;36024;47.974;16.398;2022-08-20T03:53:54;0.97;;;0.97;;
50126;SDS011;36024;47.974;16.398;2022-08-20T03:56:21;1.00;;;0.90;;
50126;SDS011;36024;47.974;16.398;2022-08-20T03:58:47;0.73;;;0.73;;
50126;SDS011;36024;47.974;16.398;2022-08-20T04:01:14;0.97;;;0.90;;
50126;SDS011;36024;47.974;16.398;2022-08-20T04:04:01;0.90;;;0.90;;
50126;SDS011;36024;47.974;16.398;2022-08-20T04:06:28;0.80;;;0.73;;
50126;SDS011;36024;47.974;16.398;2022-08-20T04:08:55;1.60;;;0.90;;
50126;SDS011;36024;47.974;16.398;2022-08-20T04:11:22;1.10;;;1.00;;
50126;SDS011;36024;47.974;16.398;2022-08-20T04:13:49;0.77;;;0.77;;
50126;SDS011;36024;47.974;16.398;2022-08-20T04:16:16;0.90;;;0.90;;
50126;SDS011;36024;47.974;16.398;2022-08-20T04:18:44;0.80;;;0.80;;
50126;SDS011;36024;47.974;16.398;2022-08-20T04:21:28;1.27;;;0.77;;
50126;SDS011;36024;47.974;16.398;2022-08-20T04:23:58;1.13;;;0.97;;
50126;SDS011;36024;47.974;16.398;2022-08-20T04:26:25;0.87;;;0.77;;
50126;SDS011;36024;47.974;16.398;2022-08-20T04:28:52;0.80;;;0.80;;
50126;SDS011;36024;47.974;16.398;2022-08-20T04:31:21;0.90;;;0.90;;
50126;SDS011;36024;47.974;16.398;2022-08-20T04:33:51;1.10;;;0.80;;
50126;SDS011;36024;47.974;16.398;2022-08-20T04:36:18;1.70;;;0.70;;
50126;SDS011;36024;47.974;16.398;2022-08-20T04:38:45;1.30;;;0.70;;
50126;SDS011;36024;47.974;16.398;2022-08-20T04:41:19;0.70;;;0.70;;
50126;SDS011;36024;47.974;16.398;2022-08-20T04:43:49;0.83;;;0.70;;
50126;SDS011;36024;47.974;16.398;2022-08-20T04:46:17;0.80;;;0.70;;
50126;SDS011;36024;47.974;16.398;2022-08-20T04:48:44;1.17;;;0.70;;
50126;SDS011;36024;47.974;16.398;2022-08-20T04:51:16;0.80;;;0.80;;
50126;SDS011;36024;47.974;16.398;2022-08-20T04:53:43;0.60;;;0.60;;
50126;SDS011;36024;47.974;16.398;2022-08-20T04:56:18;0.67;;;0.67;;
50126;SDS011;36024;47.974;16.398;2022-08-20T04:58:49;0.67;;;0.67;;
50126;SDS011;36024;47.974;16.398;2022-08-20T05:01:17;0.80;;;0.80;;
50126;SDS011;36024;47.974;16.398;2022-08-20T05:03:44;0.70;;;0.70;;
50126;SDS011;36024;47.974;16.398;2022-08-20T05:06:13;0.80;;;0.80;;
50126;SDS011;36024;47.974;16.398;2022-08-20T05:08:41;0.67;;;0.67;;
50126;SDS011;36024;47.974;16.398;2022-08-20T05:11:08;0.70;;;0.70;;
50126;SDS011;36024;47.974;16.398;2022-08-20T05:13:55;2.10;;;0.97;;
50126;SDS011;36024;47.974;16.398;2022-08-20T05:16:22;0.90;;;0.90;;
50126;SDS011;36024;47.974;16.398;2022-08-20T05:18:50;0.80;;;0.80;;
50126;SDS011;36024;47.974;16.398;2022-08-20T05:21:18;0.77;;;0.77;;
50126;SDS011;36024;47.974;16.398;2022-08-20T05:23:45;0.60;;;0.60;;
50126;SDS011;36024;47.974;16.398;2022-08-20T05:26:12;0.65;;;0.65;;
50126;SDS011;36024;47.974;16.398;2022-08-20T05:28:41;0.75;;;0.70;;
50126;SDS011;36024;47.974;16.398;2022-08-20T05:31:27;0.70;;;0.70;;
50126;SDS011;36024;47.974;16.398;2022-08-20T05:34:00;0.77;;;0.77;;
50126;SDS011;36024;47.974;16.398;2022-08-20T05:36:41;0.80;;;0.80;;
50126;SDS011;36024;47.974;16.398;2022-08-20T05:39:09;0.60;;;0.60;;
50126;SDS011;36024;47.974;16.398;2022-08-20T05:41:36;1.00;;;0.63;;
50126;SDS011;36024;47.974;16.398;2022-08-20T05:44:04;0.70;;;0.70;;
50126;SDS011;36024;47.974;16.398;2022-08-20T05:46:35;0.70;;;0.70;;
50126;SDS011;36024;47.974;16.398;2022-08-20T05:49:07;0.80;;;0.70;;
50126;SDS011;36024;47.974;16.398;2022-08-20T05:51:38;0.80;;;0.80;;
50126;SDS011;36024;47.974;16.398;2022-08-20T05:54:05;1.27;;;0.80;;
50126;SDS011;36024;47.974;16.398;2022-08-20T05:56:32;0.77;;;0.70;;
50126;SDS011;36024;47.974;16.398;2022-08-20T05:59:00;0.93;;;0.90;;
50126;SDS011;36024;47.974;16.398;2022-08-20T06:01:30;0.98;;;0.70;;
50126;SDS011;36024;47.974;16.398;2022-08-20T06:03:58;1.10;;;1.00;;
50126;SDS011;36024;47.974;16.398;2022-08-20T06:06:43;0.82;;;0.82;;
50126;SDS011;36024;47.974;16.398;2022-08-20T06:09:14;1.08;;;0.98;;
50126;SDS011;36024;47.974;16.398;2022-08-20T06:11:41;1.83;;;0.90;;
50126;SDS011;36024;47.974;16.398;2022-08-20T06:14:08;0.70;;;0.70;;
50126;SDS011;36024;47.974;16.398;2022-08-20T06:16:35;1.17;;;0.93;;
50126;SDS011;36024;47.974;16.398;2022-08-20T06:19:03;1.30;;;0.82;;
50126;SDS011;36024;47.974;16.398;2022-08-20T06:21:30;0.90;;;0.70;;
50126;SDS011;36024;47.974;16.398;2022-08-20T06:23:57;0.77;;;0.70;;
50126;SDS011;36024;47.974;16.398;2022-08-20T06:26:26;1.27;;;0.80;;
50126;SDS011;36024;47.974;16.398;2022-08-20T06:28:55;0.97;;;0.90;;
50126;SDS011;36024;47.974;16.398;2022-08-20T06:31:22;0.70;;;0.70;;
50126;SDS011;36024;47.974;16.398;2022-08-20T06:33:49;1.20;;;0.70;;
50126;SDS011;36024;47.974;16.398;2022-08-20T06:36:16;1.15;;;0.90;;
50126;SDS011;36024;47.974;16.398;2022-08-20T06:38:44;1.20;;;0.70;;
50126;SDS011;36024;47.974;16.398;2022-08-20T06:41:12;0.75;;;0.75;;
50126;SDS011;36024;47.974;16.398;2022-08-20T06:43:39;0.98;;;0.77;;
50126;SDS011;36024;47.974;16.398;2022-08-20T06:46:06;0.80;;;0.80;;
50126;SDS011;36024;47.974;16.398;2022-08-20T06:48:33;0.82;;;0.77;;
50126;SDS011;36024;47.974;16.398;2022-08-20T06:51:00;0.95;;;0.90;;
50126;SDS011;36024;47.974;16.398;2022-08-20T06:53:27;1.67;;;0.90;;
50126;SDS011;36024;47.974;16.398;2022-08-20T06:55:54;0.85;;;0.80;;
50126;SDS011;36024;47.974;16.398;2022-08-20T06:58:24;0.70;;;0.70;;
50126;SDS011;36024;47.974;16.398;2022-08-20T07:01:07;1.95;;;0.90;;
50126;SDS011;36024;47.974;16.398;2022-08-20T07:03:37;1.20;;;0.80;;
50126;SDS011;36024;47.974;16.398;2022-08-20T07:06:07;0.77;;;0.77;;
50126;SDS011;36024;47.974;16.398;2022-08-20T07:08:35;1.58;;;0.80;;
50126;SDS011;36024;47.974;16.398;2022-08-20T07:11:01;1.42;;;0.80;;
50126;SDS011;36024;47.974;16.398;2022-08-20T07:13:28;1.05;;;0.95;;
50126;SDS011;36024;47.974;16.398;2022-08-20T07:15:55;0.70;;;0.70;;
50126;SDS011;36024;47.974;16.398;2022-08-20T07:18:22;1.02;;;0.93;;
50126;SDS011;36024;47.974;16.398;2022-08-20T07:20:54;0.75;;;0.75;;
50126;SDS011;36024;47.974;16.398;2022-08-20T07:23:23;1.25;;;0.75;;
50126;SDS011;36024;47.974;16.398;2022-08-20T07:25:51;0.98;;;0.90;;
50126;SDS011;36024;47.974;16.398;2022-08-20T07:28:19;1.10;;;0.68;;
50126;SDS011;36024;47.974;16.398;2022-08-20T07:30:47;0.80;;;0.80;;
50126;SDS011;36024;47.974;16.398;2022-08-20T07:33:41;2.58;;;0.88;;
50126;SDS011;36024;47.974;16.398;2022-08-20T07:36:11;0.75;;;0.70;;
50126;SDS011;36024;47.974;16.398;2022-08-20T07:38:38;0.88;;;0.88;;
50126;SDS011;36024;47.974;16.398;2022-08-20T07:41:06;1.00;;;0.88;;
50126;SDS011;36024;47.974;16.398;2022-08-20T07:43:33;0.80;;;0.80;;
50126;SDS011;36024;47.974;16.398;2022-08-20T07:46:01;0.80;;;0.80;;
50126;SDS011;36024;47.974;16.398;2022-08-20T07:48:35;1.65;;;0.90;;
50126;SDS011;36024;47.974;16.398;2022-08-20T07:51:05;0.77;;;0.70;;
50126;SDS011;36024;47.974;16.398;2022-08-20T07:53:34;1.33;;;0.80;;
50126;SDS011;36024;47.974;16.398;2022-08-20T07:56:05;0.60;;;0.60;;
50126;SDS011;36024;47.974;16.398;2022-08-20T07:58:34;0.68;;;0.68;;
50126;SDS011;36024;47.974;16.398;2022-08-20T08:01:02;1.30;;;0.70;;
50126;SDS011;36024;47.974;16.398;2022-08-20T08:03:31;0.60;;;0.60;;
50126;SDS011;36024;47.974;16.398;2022-08-20T08:06:16;0.50;;;0.50;;
50126;SDS011;36024;47.974;16.398;2022-08-20T08:09:17;0.50;;;0.50;;
50126;SDS011;36024;47.974;16.398;2022-08-20T08:11:46;0.90;;;0.60;;
50126;SDS011;36024;47.974;16.398;2022-08-20T08:14:16;0.70;;;0.70;;
50126;SDS011;36024;47.974;16.398;2022-08-20T08:16:46;0.75;;;0.60;;
50126;SDS011;36024;47.974;16.398;2022-08-20T08:19:13;0.47;;;0.47;;
50126;SDS011;36024;47.974;16.398;2022-08-20T08:21:40;0.80;;;0.50;;
50126;SDS011;36024;47.974;16.398;2022-08-20T08:24:08;0.50;;;0.45;;
50126;SDS011;36024;47.974;16.398;2022-08-20T08:26:39;0.85;;;0.60;;
50126;SDS011;36024;47.974;16.398;2022-08-20T08:29:06;0.43;;;0.43;;
50126;SDS011;36024;47.974;16.398;2022-08-20T08:31:33;0.70;;;0.70;;
50126;SDS011;36024;47.974;16.398;2022-08-20T08:34:00;0.80;;;0.50;;
50126;SDS011;36024;47.974;16.398;2022-08-20T08:36:26;0.52;;;0.52;;
50126;SDS011;36024;47.974;16.398;2022-08-20T08:38:53;0.60;;;0.60;;
50126;SDS011;36024;47.974;16.398;2022-08-20T08:41:29;0.50;;;0.50;;
50126;SDS011;36024;47.974;16.398;2022-08-20T08:44:09;1.95;;;0.73;;
50126;SDS011;36024;47.974;16.398;2022-08-20T08:46:39;0.63;;;0.60;;
50126;SDS011;36024;47.974;16.398;2022-08-20T08:49:09;0.80;;;0.68;;
50126;SDS011;36024;47.974;16.398;2022-08-20T08:51:43;0.70;;;0.70;;
50126;SDS011;36024;47.974;16.398;2022-08-20T08:54:23;0.50;;;0.50;;
50126;SDS011;36024;47.974;16.398;2022-08-20T08:56:52;1.27;;;0.80;;
50126;SDS011;36024;47.974;16.398;2022-08-20T08:59:19;0.60;;;0.60;;
50126;SDS011;36024;47.974;16.398;2022-08-20T09:01:54;0.70;;;0.70;;
50126;SDS011;36024;47.974;16.398;2022-08-20T09:04:26;0.60;;;0.60;;
50126;SDS011;36024;47.974;16.398;2022-08-20T09:06:57;0.68;;;0.50;;
50126;SDS011;36024;47.974;16.398;2022-08-20T09:09:26;1.10;;;0.70;;
50126;SDS011;36024;47.974;16.398;2022-08-20T09:11:56;0.60;;;0.60;;
50126;SDS011;36024;47.974;16.398;2022-08-20T09:14:38;0.73;;;0.60;;
50126;SDS011;36024;47.974;16.398;2022-08-20T09:17:04;2.50;;;0.70;;
50126;SDS011;36024;47.974;16.398;2022-08-20T09:19:31;0.57;;;0.57;;
50126;SDS011;36024;47.974;16.398;2022-08-20T09:21:58;0.50;;;0.50;;
50126;SDS011;36024;47.974;16.398;2022-08-20T09:24:25;0.50;;;0.50;;
50126;SDS011;36024;47.974;16.398;2022-08-20T09:26:51;1.05;;;0.57;;
50126;SDS011;36024;47.974;16.398;2022-08-20T09:29:18;0.52;;;0.50;;
50126;SDS011;36024;47.974;16.398;2022-08-20T09:31:46;1.05;;;0.57;;
50126;SDS011;36024;47.974;16.398;2022-08-20T09:34:13;0.57;;;0.57;;
50126;SDS011;36024;47.974;16.398;2022-08-20T09:36:40;0.50;;;0.50;;
50126;SDS011;36024;47.974;16.398;2022-08-20T09:39:07;0.47;;;0.47;;
50126;SDS011;36024;47.974;16.398;2022-08-20T09:41:35;0.50;;;0.50;;
50126;SDS011;36024;47.974;16.398;2022-08-20T09:44:01;0.85;;;0.50;;
50126;SDS011;36024;47.974;16.398;2022-08-20T09:46:28;0.55;;;0.55;;
50126;SDS011;36024;47.974;16.398;2022-08-20T09:48:55;0.60;;;0.60;;
50126;SDS011;36024;47.974;16.398;2022-08-20T09:51:24;0.68;;;0.65;;
50126;SDS011;36024;47.974;16.398;2022-08-20T09:53:50;0.77;;;0.70;;
50126;SDS011;36024;47.974;16.398;2022-08-20T09:56:17;1.25;;;0.60;;
50126;SDS011;36024;47.974;16.398;2022-08-20T09:58:48;0.40;;;0.40;;
50126;SDS011;36024;47.974;16.398;2022-08-20T10:01:16;0.60;;;0.60;;
50126;SDS011;36024;47.974;16.398;2022-08-20T10:03:44;0.70;;;0.68;;
50126;SDS011;36024;47.974;16.398;2022-08-20T10:06:15;0.50;;;0.50;;
50126;SDS011;36024;47.974;16.398;2022-08-20T10:08:47;1.15;;;0.60;;
50126;SDS011;36024;47.974;16.398;2022-08-20T10:11:15;0.60;;;0.60;;
50126;SDS011;36024;47.974;16.398;2022-08-20T10:13:43;0.57;;;0.57;;
50126;SDS011;36024;47.974;16.398;2022-08-20T10:16:10;0.50;;;0.50;;
50126;SDS011;36024;47.974;16.398;2022-08-20T10:18:37;0.50;;;0.50;;
50126;SDS011;36024;47.974;16.398;2022-08-20T10:21:08;0.60;;;0.60;;
50126;SDS011;36024;47.974;16.398;2022-08-20T10:23:36;0.80;;;0.70;;
50126;SDS011;36024;47.974;16.398;2022-08-20T10:26:02;1.50;;;0.63;;
50126;SDS011;36024;47.974;16.398;2022-08-20T10:28:29;0.50;;;0.50;;
50126;SDS011;36024;47.974;16.398;2022-08-20T10:30:56;0.60;;;0.60;;
50126;SDS011;36024;47.974;16.398;2022-08-20T10:33:23;0.95;;;0.95;;
50126;SDS011;36024;47.974;16.398;2022-08-20T10:35:49;0.90;;;0.90;;
50126;SDS011;36024;47.974;16.398;2022-08-20T10:38:20;2.35;;;1.00;;
50126;SDS011;36024;47.974;16.398;2022-08-20T10:40:46;0.70;;;0.70;;
50126;SDS011;36024;47.974;16.398;2022-08-20T10:43:17;0.80;;;0.80;;
50126;SDS011;36024;47.974;16.398;2022-08-20T10:45:44;0.98;;;0.98;;
50126;SDS011;36024;47.974;16.398;2022-08-20T10:48:11;1.13;;;1.13;;
50126;SDS011;36024;47.974;16.398;2022-08-20T10:50:37;1.23;;;0.80;;
50126;SDS011;36024;47.974;16.398;2022-08-20T10:53:04;1.10;;;0.85;;
50126;SDS011;36024;47.974;16.398;2022-08-20T10:55:31;1.00;;;1.00;;
50126;SDS011;36024;47.974;16.398;2022-08-20T10:57:57;1.02;;;1.02;;
50126;SDS011;36024;47.974;16.398;2022-08-20T11:00:24;1.00;;;1.00;;
50126;SDS011;36024;47.974;16.398;2022-08-20T11:02:51;0.90;;;0.88;;
50126;SDS011;36024;47.974;16.398;2022-08-20T11:05:17;2.25;;;1.00;;
50126;SDS011;36024;47.974;16.398;2022-08-20T11:07:44;1.17;;;1.00;;
50126;SDS011;36024;47.974;16.398;2022-08-20T11:10:22;1.00;;;1.00;;
50126;SDS011;36024;47.974;16.398;2022-08-20T11:12:52;1.00;;;1.00;;
50126;SDS011;36024;47.974;16.398;2022-08-20T11:15:19;1.20;;;1.10;;
50126;SDS011;36024;47.974;16.398;2022-08-20T11:17:46;1.38;;;1.02;;
50126;SDS011;36024;47.974;16.398;2022-08-20T11:20:14;0.90;;;0.90;;
50126;SDS011;36024;47.974;16.398;2022-08-20T11:22:42;0.88;;;0.88;;
50126;SDS011;36024;47.974;16.398;2022-08-20T11:25:08;0.80;;;0.80;;
50126;SDS011;36024;47.974;16.398;2022-08-20T11:27:38;1.20;;;0.80;;
50126;SDS011;36024;47.974;16.398;2022-08-20T11:30:08;0.90;;;0.90;;
50126;SDS011;36024;47.974;16.398;2022-08-20T11:34:51;1.10;;;1.10;;
50126;SDS011;36024;47.974;16.398;2022-08-20T11:37:19;1.52;;;1.10;;
50126;SDS011;36024;47.974;16.398;2022-08-20T11:39:47;1.35;;;1.25;;
50126;SDS011;36024;47.974;16.398;2022-08-20T11:42:14;1.45;;;1.35;;
50126;SDS011;36024;47.974;16.398;2022-08-20T11:44:41;1.10;;;1.10;;
50126;SDS011;36024;47.974;16.398;2022-08-20T11:47:08;1.20;;;1.20;;
50126;SDS011;36024;47.974;16.398;2022-08-20T11:49:45;0.82;;;0.80;;
50126;SDS011;36024;47.974;16.398;2022-08-20T11:52:11;0.63;;;0.63;;
50126;SDS011;36024;47.974;16.398;2022-08-20T11:54:38;0.60;;;0.60;;
50126;SDS011;36024;47.974;16.398;2022-08-20T11:57:05;0.60;;;0.60;;
50126;SDS011;36024;47.974;16.398;2022-08-20T11:59:32;1.50;;;0.50;;
50126;SDS011;36024;47.974;16.398;2022-08-20T12:01:59;0.60;;;0.60;;
50126;SDS011;36024;47.974;16.398;2022-08-20T12:04:29;0.70;;;0.70;;
50126;SDS011;36024;47.974;16.398;2022-08-20T12:07:06;1.88;;;0.68;;
50126;SDS011;36024;47.974;16.398;2022-08-20T12:09:34;0.63;;;0.60;;
50126;SDS011;36024;47.974;16.398;2022-08-20T12:12:05;1.88;;;0.60;;
50126;SDS011;36024;47.974;16.398;2022-08-20T12:14:32;0.98;;;0.63;;
50126;SDS011;36024;47.974;16.398;2022-08-20T12:17:09;0.77;;;0.60;;
50126;SDS011;36024;47.974;16.398;2022-08-20T12:19:39;0.63;;;0.63;;
50126;SDS011;36024;47.974;16.398;2022-08-20T12:22:07;0.70;;;0.70;;
50126;SDS011;36024;47.974;16.398;2022-08-20T12:24:51;1.15;;;0.85;;
50126;SDS011;36024;47.974;16.398;2022-08-20T12:27:20;0.80;;;0.80;;
50126;SDS011;36024;47.974;16.398;2022-08-20T12:29:49;0.90;;;0.90;;
50126;SDS011;36024;47.974;16.398;2022-08-20T12:32:19;0.90;;;0.90;;
50126;SDS011;36024;47.974;16.398;2022-08-20T12:34:46;2.30;;;1.05;;
50126;SDS011;36024;47.974;16.398;2022-08-20T12:37:14;1.20;;;1.10;;
50126;SDS011;36024;47.974;16.398;2022-08-20T12:39:45;1.10;;;1.10;;
50126;SDS011;36024;47.974;16.398;2022-08-20T12:42:13;1.10;;;1.10;;
50126;SDS011;36024;47.974;16.398;2022-08-20T12:44:40;1.50;;;1.08;;
50126;SDS011;36024;47.974;16.398;2022-08-20T12:49:38;1.85;;;1.20;;
50126;SDS011;36024;47.974;16.398;2022-08-20T12:52:06;0.90;;;0.90;;
50126;SDS011;36024;47.974;16.398;2022-08-20T12:54:34;0.90;;;0.90;;
50126;SDS011;36024;47.974;16.398;2022-08-20T12:57:01;1.35;;;0.90;;
50126;SDS011;36024;47.974;16.398;2022-08-20T12:59:33;0.77;;;0.77;;
50126;SDS011;36024;47.974;16.398;2022-08-20T13:02:00;1.05;;;0.95;;
50126;SDS011;36024;47.974;16.398;2022-08-20T13:04:44;1.00;;;1.00;;
50126;SDS011;36024;47.974;16.398;2022-08-20T13:07:11;1.50;;;1.20;;
50126;SDS011;36024;47.974;16.398;2022-08-20T13:09:40;1.23;;;1.15;;
50126;SDS011;36024;47.974;16.398;2022-08-20T13:12:08;1.88;;;1.10;;
50126;SDS011;36024;47.974;16.398;2022-08-20T13:14:36;1.20;;;1.20;;
50126;SDS011;36024;47.974;16.398;2022-08-20T13:17:04;1.25;;;1.17;;
50126;SDS011;36024;47.974;16.398;2022-08-20T13:19:32;1.35;;;1.25;;
50126;SDS011;36024;47.974;16.398;2022-08-20T13:22:00;1.50;;;1.40;;
50126;SDS011;36024;47.974;16.398;2022-08-20T13:24:27;1.42;;;1.42;;
50126;SDS011;36024;47.974;16.398;2022-08-20T13:27:02;1.27;;;1.27;;
50126;SDS011;36024;47.974;16.398;2022-08-20T13:29:31;1.38;;;1.27;;
50126;SDS011;36024;47.974;16.398;2022-08-20T13:31:57;1.38;;;1.25;;
50126;SDS011;36024;47.974;16.398;2022-08-20T13:34:24;1.33;;;1.23;;
50126;SDS011;36024;47.974;16.398;2022-08-20T13:36:51;1.20;;;1.20;;
50126;SDS011;36024;47.974;16.398;2022-08-20T13:39:17;1.15;;;1.10;;
50126;SDS011;36024;47.974;16.398;2022-08-20T13:41:44;0.98;;;0.98;;
50126;SDS011;36024;47.974;16.398;2022-08-20T13:44:11;1.40;;;1.00;;
50126;SDS011;36024;47.974;16.398;2022-08-20T13:46:37;1.92;;;1.13;;
50126;SDS011;36024;47.974;16.398;2022-08-20T13:49:04;1.45;;;0.90;;
50126;SDS011;36024;47.974;16.398;2022-08-20T13:51:31;0.98;;;0.98;;
50126;SDS011;36024;47.974;16.398;2022-08-20T13:53:58;2.03;;;0.88;;
50126;SDS011;36024;47.974;16.398;2022-08-20T13:56:24;0.90;;;0.90;;
50126;SDS011;36024;47.974;16.398;2022-08-20T13:58:51;1.85;;;0.90;;
50126;SDS011;36024;47.974;16.398;2022-08-20T14:01:18;0.90;;;0.90;;
50126;SDS011;36024;47.974;16.398;2022-08-20T14:03:45;1.10;;;0.70;;
50126;SDS011;36024;47.974;16.398;2022-08-20T14:06:13;1.05;;;0.98;;
50126;SDS011;36024;47.974;16.398;2022-08-20T14:08:40;1.35;;;0.90;;
50126;SDS011;36024;47.974;16.398;2022-08-20T14:11:07;0.90;;;0.90;;
50126;SDS011;36024;47.974;16.398;2022-08-20T14:13:39;1.00;;;1.00;;
50126;SDS011;36024;47.974;16.398;2022-08-20T14:16:07;0.70;;;0.70;;
50126;SDS011;36024;47.974;16.398;2022-08-20T14:18:53;2.03;;;0.85;;
50126;SDS011;36024;47.974;16.398;2022-08-20T14:21:21;0.90;;;0.90;;
50126;SDS011;36024;47.974;16.398;2022-08-20T14:23:48;1.30;;;0.90;;
50126;SDS011;36024;47.974;16.398;2022-08-20T14:26:14;1.95;;;0.90;;
50126;SDS011;36024;47.974;16.398;2022-08-20T14:28:41;1.63;;;1.00;;
50126;SDS011;36024;47.974;16.398;2022-08-20T14:31:08;0.82;;;0.82;;
50126;SDS011;36024;47.974;16.398;2022-08-20T14:33:34;2.17;;;1.00;;
50126;SDS011;36024;47.974;16.398;2022-08-20T14:36:02;1.02;;;1.00;;
50126;SDS011;36024;47.974;16.398;2022-08-20T14:38:29;1.63;;;0.90;;
50126;SDS011;36024;47.974;16.398;2022-08-20T14:40:56;1.02;;;1.02;;
50126;SDS011;36024;47.974;16.398;2022-08-20T14:43:22;1.35;;;1.00;;
50126;SDS011;36024;47.974;16.398;2022-08-20T14:45:49;1.30;;;0.80;;
50126;SDS011;36024;47.974;16.398;2022-08-20T14:48:16;1.13;;;0.93;;
50126;SDS011;36024;47.974;16.398;2022-08-20T14:50:42;1.08;;;1.08;;
50126;SDS011;36024;47.974;16.398;2022-08-20T14:53:09;1.30;;;1.20;;
50126;SDS011;36024;47.974;16.398;2022-08-20T14:55:36;1.20;;;1.15;;